Time;durP1;ratioP1;P1;durP2;ratioP2;P2;SDS_P1;SDS_P2;PMS_P1;PMS_P2;Temp;Humidity;BMP_temperature;BMP_pressure;BME280_temperature;BME280_humidity;BME280_pressure;Samples;Min_cycle;Max_cycle;Signal;HPM_P1;HPM_P2
2021/12/25 00:01:48;;;;;;;8.50;2.90;;;;;;;;;;4990739;28;20030;-63
2021/12/25 00:04:15;;;;;;;18.30;3.00;;;;;;;;;;4989570;28;20049;-63
2021/12/25 00:06:42;;;;;;;19.33;3.53;;;;;;;;;;4991356;28;20018;-63
2021/12/25 00:09:09;;;;;;;7.43;3.15;;;;;;;;;;4991156;28;20058;-62
2021/12/25 00:11:37;;;;;;;12.73;3.40;;;;;;;;;;4991342;28;20541;-63
2021/12/25 00:14:10;;;;;;;9.15;2.95;;;;;;;;;;4989444;28;20101;-63
2021/12/25 00:16:37;;;;;;;12.00;3.10;;;;;;;;;;4989122;28;20031;-63
2021/12/25 00:19:05;;;;;;;9.35;3.03;;;;;;;;;;4991376;28;20036;-62
2021/12/25 00:21:32;;;;;;;10.63;3.30;;;;;;;;;;4991182;28;20027;-61
2021/12/25 00:23:59;;;;;;;15.93;3.75;;;;;;;;;;4990420;28;20034;-62
2021/12/25 00:26:41;;;;;;;16.02;3.67;;;;;;;;;;4989958;28;20534;-63
2021/12/25 00:32:07;;;;;;;;;;;;;;;;;;4991609;28;20034;-64
2021/12/25 00:34:34;;;;;;;10.48;3.50;;;;;;;;;;4992838;28;19906;-63
2021/12/25 00:37:01;;;;;;;22.90;3.70;;;;;;;;;;4994732;28;20383;-63
2021/12/25 00:39:29;;;;;;;10.30;3.58;;;;;;;;;;4992624;28;20030;-63
2021/12/25 00:41:57;;;;;;;12.52;3.70;;;;;;;;;;4994393;28;20026;-63
2021/12/25 00:44:25;;;;;;;13.55;3.75;;;;;;;;;;4992695;28;20041;-63
2021/12/25 00:46:52;;;;;;;17.77;3.47;;;;;;;;;;4994419;28;20387;-63
2021/12/25 00:49:19;;;;;;;14.07;3.47;;;;;;;;;;4994103;28;20030;-63
2021/12/25 00:51:46;;;;;;;20.90;3.10;;;;;;;;;;4992560;28;20125;-62
2021/12/25 00:54:15;;;;;;;18.15;3.40;;;;;;;;;;4994013;28;20386;-62
2021/12/25 00:56:42;;;;;;;14.77;4.05;;;;;;;;;;4993489;28;20030;-63
2021/12/25 00:59:09;;;;;;;10.00;3.20;;;;;;;;;;4994212;28;20026;-63
2021/12/25 01:01:36;;;;;;;13.35;3.47;;;;;;;;;;4993931;28;20022;-64
2021/12/25 01:04:04;;;;;;;14.48;4.10;;;;;;;;;;4992028;28;20031;-63
2021/12/25 01:06:31;;;;;;;12.73;3.47;;;;;;;;;;4994148;28;20035;-62
2021/12/25 01:08:58;;;;;;;6.88;3.42;;;;;;;;;;4994344;28;20069;-62
2021/12/25 01:11:27;;;;;;;9.90;3.70;;;;;;;;;;4992781;28;20029;-63
2021/12/25 01:14:03;;;;;;;14.52;3.50;;;;;;;;;;4992540;28;20034;-64
2021/12/25 01:30:15;;;;;;;9.45;3.13;;;;;;;;;;4994331;28;20045;-62
2021/12/25 01:41:41;;;;;;;15.43;4.07;;;;;;;;;;4981662;28;20278;-61
2021/12/25 01:49:16;;;;;;;6.68;4.00;;;;;;;;;;4993782;28;20621;-63
2021/12/25 01:51:43;;;;;;;12.15;4.00;;;;;;;;;;4991398;28;20069;-63
2021/12/25 01:54:10;;;;;;;11.82;3.75;;;;;;;;;;4993247;28;20113;-63
2021/12/25 01:56:37;;;;;;;10.00;4.38;;;;;;;;;;4993251;28;20062;-63
2021/12/25 01:59:04;;;;;;;14.00;4.13;;;;;;;;;;4991925;28;20509;-63
2021/12/25 02:01:31;;;;;;;10.70;4.10;;;;;;;;;;4992716;28;20322;-64
2021/12/25 02:03:58;;;;;;;9.00;3.95;;;;;;;;;;4991002;28;20030;-61
2021/12/25 02:06:25;;;;;;;10.70;3.75;;;;;;;;;;4992993;28;20438;-63
2021/12/25 02:08:52;;;;;;;10.65;4.45;;;;;;;;;;4991678;28;20056;-61
2021/12/25 02:11:19;;;;;;;13.75;4.43;;;;;;;;;;4992996;28;20034;-60
2021/12/25 02:13:47;;;;;;;11.43;3.65;;;;;;;;;;4991924;28;20105;-63
2021/12/25 02:16:17;;;;;;;8.57;3.97;;;;;;;;;;4990561;28;20030;-62
2021/12/25 02:18:59;;;;;;;8.70;3.55;;;;;;;;;;4992822;28;20072;-62
2021/12/25 02:21:34;;;;;;;8.52;3.60;;;;;;;;;;4992756;28;20509;-62
2021/12/25 02:24:04;;;;;;;10.32;4.07;;;;;;;;;;4992504;28;20057;-62
2021/12/25 02:26:32;;;;;;;15.27;3.88;;;;;;;;;;4990496;28;20022;-62
2021/12/25 02:28:59;;;;;;;11.77;3.83;;;;;;;;;;4992023;28;20045;-63
2021/12/25 02:31:26;;;;;;;21.70;4.53;;;;;;;;;;4992259;28;20138;-63
2021/12/25 02:33:53;;;;;;;10.55;3.83;;;;;;;;;;4992546;28;20037;-63
2021/12/25 02:36:20;;;;;;;8.23;3.60;;;;;;;;;;4991898;28;20019;-63
2021/12/25 02:38:48;;;;;;;7.97;3.63;;;;;;;;;;4990739;28;20106;-61
2021/12/25 02:41:15;;;;;;;10.93;4.13;;;;;;;;;;4991505;28;20050;-62
2021/12/25 02:43:45;;;;;;;8.75;3.58;;;;;;;;;;4992225;28;20398;-62
2021/12/25 02:46:12;;;;;;;9.07;3.50;;;;;;;;;;4991745;28;20021;-63
2021/12/25 02:48:41;;;;;;;8.10;3.67;;;;;;;;;;4992373;28;20061;-63
2021/12/25 02:51:09;;;;;;;7.55;3.33;;;;;;;;;;4989836;28;20026;-62
2021/12/25 02:53:37;;;;;;;7.15;3.17;;;;;;;;;;4990936;28;20034;-62
2021/12/25 02:56:04;;;;;;;7.30;3.35;;;;;;;;;;4990336;28;20050;-61
2021/12/25 02:58:31;;;;;;;7.95;3.40;;;;;;;;;;4991799;28;20042;-64
2021/12/25 03:01:00;;;;;;;8.93;3.85;;;;;;;;;;4992098;28;20031;-63
2021/12/25 03:03:28;;;;;;;8.95;3.78;;;;;;;;;;4989920;28;20351;-63
2021/12/25 03:05:55;;;;;;;12.25;3.95;;;;;;;;;;4991566;28;20029;-64
2021/12/25 03:08:22;;;;;;;8.40;3.90;;;;;;;;;;4992371;28;20065;-64
2021/12/25 03:10:49;;;;;;;7.57;3.50;;;;;;;;;;4992287;28;20019;-63
2021/12/25 03:13:30;;;;;;;8.10;3.13;;;;;;;;;;4991989;28;20030;-62
2021/12/25 03:15:57;;;;;;;9.90;3.83;;;;;;;;;;4990165;28;20018;-64
2021/12/25 03:18:33;;;;;;;11.20;3.63;;;;;;;;;;4991704;28;20120;-61
2021/12/25 03:21:02;;;;;;;11.52;3.70;;;;;;;;;;4992187;28;20030;-62
2021/12/25 03:23:30;;;;;;;7.47;3.35;;;;;;;;;;4991446;28;20053;-63
2021/12/25 03:25:58;;;;;;;8.07;3.83;;;;;;;;;;4991087;28;20026;-63
2021/12/25 03:28:28;;;;;;;7.90;4.15;;;;;;;;;;4990503;28;20406;-61
2021/12/25 03:30:59;;;;;;;11.15;3.70;;;;;;;;;;4991968;28;20027;-63
2021/12/25 03:33:27;;;;;;;13.90;3.80;;;;;;;;;;4991867;28;20030;-63
2021/12/25 03:35:54;;;;;;;8.10;3.22;;;;;;;;;;4991399;28;20037;-63
2021/12/25 03:38:21;;;;;;;19.25;3.40;;;;;;;;;;4990623;28;20030;-63
2021/12/25 03:40:49;;;;;;;7.28;3.30;;;;;;;;;;4990741;28;20019;-61
2021/12/25 03:43:17;;;;;;;7.97;3.78;;;;;;;;;;4991480;28;20505;-61
2021/12/25 03:45:45;;;;;;;8.82;3.90;;;;;;;;;;4991177;28;20414;-63
2021/12/25 03:58:56;;;;;;;6.88;3.30;;;;;;;;;;4992048;28;20045;-61
2021/12/25 04:06:44;;;;;;;9.82;3.67;;;;;;;;;;4990495;28;20457;-61
2021/12/25 04:09:22;;;;;;;6.22;3.13;;;;;;;;;;4994925;28;20065;-61
2021/12/25 04:11:49;;;;;;;5.07;2.90;;;;;;;;;;4995260;28;20033;-61
2021/12/25 04:14:17;;;;;;;7.30;3.22;;;;;;;;;;4993828;28;20050;-63
2021/12/25 04:16:44;;;;;;;7.80;3.03;;;;;;;;;;4993601;28;20026;-62
2021/12/25 04:19:12;;;;;;;7.50;3.22;;;;;;;;;;4995016;28;20025;-63
2021/12/25 04:21:48;;;;;;;6.30;3.25;;;;;;;;;;4995269;28;20105;-62
2021/12/25 04:24:15;;;;;;;6.80;2.90;;;;;;;;;;4995087;28;20034;-62
2021/12/25 04:26:44;;;;;;;7.03;3.60;;;;;;;;;;4991926;28;20532;-63
2021/12/25 05:02:27;;;;;;;8.23;2.92;;;;;;;;;;4993131;28;20041;-61
2021/12/25 05:04:59;;;;;;;12.95;4.10;;;;;;;;;;4993570;28;20483;-62
2021/12/25 05:07:26;;;;;;;8.82;3.15;;;;;;;;;;4994007;28;20058;-63
2021/12/25 05:09:53;;;;;;;13.93;3.63;;;;;;;;;;4993300;28;20026;-63
2021/12/25 05:12:21;;;;;;;11.13;3.08;;;;;;;;;;4994283;28;20025;-61
2021/12/25 05:14:48;;;;;;;9.70;2.97;;;;;;;;;;4991878;28;20046;-63
2021/12/25 05:17:15;;;;;;;12.45;3.20;;;;;;;;;;4993249;28;20030;-61
2021/12/25 05:19:42;;;;;;;8.25;2.78;;;;;;;;;;4992015;28;20457;-61
2021/12/25 05:22:10;;;;;;;7.75;3.20;;;;;;;;;;4994095;28;20030;-62
2021/12/25 05:24:38;;;;;;;12.43;2.92;;;;;;;;;;4993894;28;20038;-62
2021/12/25 05:27:05;;;;;;;11.57;3.10;;;;;;;;;;4990695;28;20046;-61
2021/12/25 05:29:34;;;;;;;10.65;3.00;;;;;;;;;;4994024;28;20026;-61
2021/12/25 05:32:01;;;;;;;12.55;3.05;;;;;;;;;;4994107;28;20026;-61
2021/12/25 05:34:28;;;;;;;14.00;3.00;;;;;;;;;;4993942;28;20093;-62
2021/12/25 05:36:55;;;;;;;12.35;2.85;;;;;;;;;;4992798;28;20034;-62
2021/12/25 05:39:22;;;;;;;13.18;3.47;;;;;;;;;;4991317;28;20080;-61
2021/12/25 05:41:50;;;;;;;8.20;2.67;;;;;;;;;;4993746;28;20033;-63
2021/12/25 05:44:18;;;;;;;10.82;3.33;;;;;;;;;;4993702;28;20398;-65
2021/12/25 05:46:45;;;;;;;12.35;3.28;;;;;;;;;;4993183;28;20101;-65
2021/12/25 05:49:12;;;;;;;8.70;2.97;;;;;;;;;;4992824;28;20117;-64
2021/12/25 05:51:39;;;;;;;9.50;3.35;;;;;;;;;;4991384;28;20049;-65
2021/12/25 05:54:07;;;;;;;12.65;2.95;;;;;;;;;;4993588;28;20018;-64
2021/12/25 05:56:34;;;;;;;10.18;2.97;;;;;;;;;;4992538;28;20036;-65
2021/12/25 05:59:01;;;;;;;20.48;3.83;;;;;;;;;;4993100;28;20031;-63
2021/12/25 06:01:28;;;;;;;26.58;4.05;;;;;;;;;;4993321;28;20018;-62
2021/12/25 06:03:56;;;;;;;13.60;3.40;;;;;;;;;;4991125;28;20061;-65
2021/12/25 06:06:24;;;;;;;23.08;3.88;;;;;;;;;;4993060;28;20069;-65
2021/12/25 06:08:51;;;;;;;16.33;3.28;;;;;;;;;;4992831;28;20080;-64
2021/12/25 06:11:19;;;;;;;17.17;3.30;;;;;;;;;;4993669;28;20390;-64
2021/12/25 06:13:56;;;;;;;15.98;3.83;;;;;;;;;;4992332;28;20053;-64
2021/12/25 06:16:23;;;;;;;13.80;3.33;;;;;;;;;;4991819;28;20081;-63
2021/12/25 06:18:50;;;;;;;16.25;3.33;;;;;;;;;;4991478;28;20471;-64
2021/12/25 06:21:17;;;;;;;10.82;3.22;;;;;;;;;;4993018;28;20026;-64
2021/12/25 06:23:44;;;;;;;13.68;3.33;;;;;;;;;;4992628;28;20041;-64
2021/12/25 06:26:12;;;;;;;23.88;3.42;;;;;;;;;;4990353;28;20021;-64
2021/12/25 06:28:39;;;;;;;16.25;3.30;;;;;;;;;;4991202;28;20054;-63
2021/12/25 06:31:06;;;;;;;15.57;3.72;;;;;;;;;;4992189;28;20014;-62
2021/12/25 06:33:33;;;;;;;16.73;4.00;;;;;;;;;;4992512;28;20834;-62
2021/12/25 06:36:00;;;;;;;16.17;3.90;;;;;;;;;;4992619;28;20084;-63
2021/12/25 06:38:40;;;;;;;15.32;3.67;;;;;;;;;;4990966;28;20027;-64
2021/12/25 06:41:08;;;;;;;14.60;3.25;;;;;;;;;;4992243;28;20030;-64
2021/12/25 06:43:35;;;;;;;15.10;3.33;;;;;;;;;;4992495;28;20084;-61
2021/12/25 06:46:02;;;;;;;12.55;3.47;;;;;;;;;;4992655;28;20018;-62
2021/12/25 06:48:29;;;;;;;24.77;4.55;;;;;;;;;;4991583;28;20552;-62
2021/12/25 06:50:56;;;;;;;12.15;2.70;;;;;;;;;;4990477;28;20022;-64
2021/12/25 06:53:23;;;;;;;18.38;3.42;;;;;;;;;;4992084;28;20028;-64
2021/12/25 06:55:50;;;;;;;12.25;3.50;;;;;;;;;;4992322;28;20038;-62
2021/12/25 06:58:17;;;;;;;14.48;3.45;;;;;;;;;;4991959;28;20031;-64
2021/12/25 07:00:44;;;;;;;25.95;3.63;;;;;;;;;;4991547;28;20029;-62
2021/12/25 07:03:11;;;;;;;12.52;3.55;;;;;;;;;;4989667;28;20034;-62
2021/12/25 07:05:38;;;;;;;17.02;3.72;;;;;;;;;;4992458;28;20050;-64
2021/12/25 07:08:05;;;;;;;14.32;3.20;;;;;;;;;;4991716;28;20026;-64
2021/12/25 07:10:32;;;;;;;18.77;4.10;;;;;;;;;;4991769;28;20069;-64
2021/12/25 07:13:00;;;;;;;13.48;3.42;;;;;;;;;;4992160;28;20030;-62
2021/12/25 07:15:27;;;;;;;17.85;4.38;;;;;;;;;;4990062;28;20491;-64
2021/12/25 07:17:54;;;;;;;9.90;3.40;;;;;;;;;;4991142;28;20121;-64
2021/12/25 07:20:21;;;;;;;15.25;3.47;;;;;;;;;;4992311;28;20069;-63
2021/12/25 07:22:48;;;;;;;10.43;3.45;;;;;;;;;;4991540;28;20029;-61
2021/12/25 07:25:15;;;;;;;14.15;3.88;;;;;;;;;;4991740;28;20030;-64
2021/12/25 07:27:42;;;;;;;16.30;3.40;;;;;;;;;;4989553;28;20426;-64
2021/12/25 07:30:09;;;;;;;13.43;3.40;;;;;;;;;;4992078;28;20044;-62
2021/12/25 07:32:36;;;;;;;18.52;3.55;;;;;;;;;;4991797;28;20762;-64
2021/12/25 07:35:04;;;;;;;14.80;3.67;;;;;;;;;;4991948;28;20029;-62
2021/12/25 07:37:31;;;;;;;27.92;3.58;;;;;;;;;;4991806;28;20058;-63
2021/12/25 07:39:58;;;;;;;18.42;3.58;;;;;;;;;;4989328;28;20018;-64
2021/12/25 07:42:25;;;;;;;14.80;3.33;;;;;;;;;;4992187;28;20035;-63
2021/12/25 07:44:55;;;;;;;9.57;2.67;;;;;;;;;;4996028;28;20026;-64
2021/12/25 07:47:23;;;;;;;20.95;3.15;;;;;;;;;;4994848;28;20085;-64
2021/12/25 07:49:51;;;;;;;15.80;3.72;;;;;;;;;;4995061;28;20049;-61
2021/12/25 07:52:18;;;;;;;10.15;3.03;;;;;;;;;;4994460;28;20022;-63
2021/12/25 07:54:45;;;;;;;16.38;2.72;;;;;;;;;;4995596;28;20038;-61
2021/12/25 07:57:12;;;;;;;18.45;3.85;;;;;;;;;;4995555;28;20386;-65
2021/12/25 07:59:39;;;;;;;14.35;3.55;;;;;;;;;;4994928;28;20372;-64
2021/12/25 08:02:06;;;;;;;18.58;3.28;;;;;;;;;;4994488;28;20023;-64
2021/12/25 08:04:33;;;;;;;17.17;3.10;;;;;;;;;;4994371;28;20486;-62
2021/12/25 08:07:01;;;;;;;19.05;3.72;;;;;;;;;;4995687;28;20037;-62
2021/12/25 08:09:29;;;;;;;15.52;3.75;;;;;;;;;;4994744;28;20038;-64
2021/12/25 08:11:57;;;;;;;15.93;3.15;;;;;;;;;;4995337;28;20023;-61
2021/12/25 08:14:25;;;;;;;13.30;3.72;;;;;;;;;;4994135;28;20042;-64
2021/12/25 08:16:53;;;;;;;13.90;3.03;;;;;;;;;;4994702;28;20045;-63
2021/12/25 08:19:21;;;;;;;15.02;3.72;;;;;;;;;;4995499;28;20093;-63
2021/12/25 08:21:48;;;;;;;12.27;3.17;;;;;;;;;;4995658;28;20030;-60
2021/12/25 08:24:15;;;;;;;18.15;3.42;;;;;;;;;;4995433;28;20039;-65
2021/12/25 08:26:42;;;;;;;11.70;3.08;;;;;;;;;;4993515;28;20018;-65
2021/12/25 08:29:09;;;;;;;13.45;2.95;;;;;;;;;;4994677;28;20049;-65
2021/12/25 08:31:37;;;;;;;14.45;2.90;;;;;;;;;;4995368;28;20505;-62
2021/12/25 08:34:05;;;;;;;11.73;3.17;;;;;;;;;;4994101;28;20030;-64
2021/12/25 08:36:32;;;;;;;10.50;2.90;;;;;;;;;;4995412;28;20430;-65
2021/12/25 08:38:59;;;;;;;15.93;3.72;;;;;;;;;;4992677;28;20041;-63
2021/12/25 08:41:29;;;;;;;10.30;2.80;;;;;;;;;;4994677;28;20018;-65
2021/12/25 08:44:06;;;;;;;7.65;2.47;;;;;;;;;;4994887;28;20542;-64
2021/12/25 08:46:45;;;;;;;11.27;3.15;;;;;;;;;;4995042;28;20055;-65
2021/12/25 08:49:17;;;;;;;12.88;3.10;;;;;;;;;;4994040;28;20027;-64
2021/12/25 08:51:45;;;;;;;9.77;2.83;;;;;;;;;;4992448;28;20471;-64
2021/12/25 08:54:13;;;;;;;9.85;2.40;;;;;;;;;;4993492;28;20433;-64
2021/12/25 08:56:40;;;;;;;11.43;2.75;;;;;;;;;;4994650;28;20457;-63
2021/12/25 08:59:07;;;;;;;10.73;3.13;;;;;;;;;;4994385;28;20022;-63
2021/12/25 09:01:34;;;;;;;15.15;3.28;;;;;;;;;;4992769;28;20097;-62
2021/12/25 09:04:01;;;;;;;9.25;3.20;;;;;;;;;;4991721;28;20105;-65
2021/12/25 09:06:28;;;;;;;11.68;2.47;;;;;;;;;;4994658;28;20438;-64
2021/12/25 09:08:55;;;;;;;16.17;3.80;;;;;;;;;;4993713;28;20033;-62
2021/12/25 09:11:24;;;;;;;13.20;2.45;;;;;;;;;;4992876;28;20026;-61
2021/12/25 09:13:51;;;;;;;8.98;2.60;;;;;;;;;;4993736;28;20037;-61
2021/12/25 09:16:18;;;;;;;9.48;2.78;;;;;;;;;;4992580;28;20042;-62
2021/12/25 09:18:46;;;;;;;10.60;2.95;;;;;;;;;;4993224;28;20022;-62
2021/12/25 09:21:14;;;;;;;9.77;2.72;;;;;;;;;;4994355;28;20026;-62
2021/12/25 09:23:41;;;;;;;11.85;2.78;;;;;;;;;;4994052;28;20397;-63
2021/12/25 09:26:08;;;;;;;9.02;2.67;;;;;;;;;;4992944;28;20093;-63
2021/12/25 09:28:35;;;;;;;8.63;2.53;;;;;;;;;;4992035;28;20053;-61
2021/12/25 09:31:02;;;;;;;15.48;3.05;;;;;;;;;;4993630;28;20023;-61
2021/12/25 09:33:30;;;;;;;10.52;3.25;;;;;;;;;;4993885;28;20054;-61
2021/12/25 09:35:57;;;;;;;17.50;2.88;;;;;;;;;;4993909;28;20126;-62
2021/12/25 09:38:24;;;;;;;8.63;2.58;;;;;;;;;;4992221;28;20034;-60
2021/12/25 09:40:51;;;;;;;10.50;3.10;;;;;;;;;;4991734;28;20061;-61
2021/12/25 09:43:19;;;;;;;10.27;2.55;;;;;;;;;;4993440;28;20509;-61
2021/12/25 09:45:46;;;;;;;12.60;2.80;;;;;;;;;;4991259;28;20034;-62
2021/12/25 09:48:13;;;;;;;12.25;3.28;;;;;;;;;;4990172;28;20033;-62
2021/12/25 09:50:40;;;;;;;12.30;3.03;;;;;;;;;;4988566;28;20118;-61
2021/12/25 09:53:08;;;;;;;14.80;2.95;;;;;;;;;;4989351;28;20022;-61
2021/12/25 09:55:35;;;;;;;8.25;2.15;;;;;;;;;;4989956;28;20041;-62
2021/12/25 09:58:03;;;;;;;9.18;2.80;;;;;;;;;;4990104;28;20510;-61
2021/12/25 10:00:30;;;;;;;12.75;2.72;;;;;;;;;;4990224;28;20097;-62
2021/12/25 10:02:58;;;;;;;9.13;2.58;;;;;;;;;;4987637;28;20675;-61
2021/12/25 10:05:28;;;;;;;9.70;2.25;;;;;;;;;;4989578;28;20030;-62
2021/12/25 10:08:07;;;;;;;10.98;2.70;;;;;;;;;;4989619;28;20037;-63
2021/12/25 10:10:44;;;;;;;10.98;3.20;;;;;;;;;;4988397;28;20137;-61
2021/12/25 10:13:19;;;;;;;8.18;2.83;;;;;;;;;;4989818;28;20061;-62
2021/12/25 10:15:46;;;;;;;8.55;2.70;;;;;;;;;;4986098;28;20053;-61
2021/12/25 10:18:14;;;;;;;8.13;2.50;;;;;;;;;;4989867;28;20022;-64
2021/12/25 10:20:41;;;;;;;7.78;2.40;;;;;;;;;;4989626;28;20038;-64
2021/12/25 10:23:13;;;;;;;26.05;3.05;;;;;;;;;;4989081;28;20058;-62
2021/12/25 10:25:50;;;;;;;11.70;3.15;;;;;;;;;;4989049;28;20042;-61
2021/12/25 10:28:22;;;;;;;14.57;3.05;;;;;;;;;;4987958;28;20038;-63
2021/12/25 10:31:01;;;;;;;8.07;2.40;;;;;;;;;;4987786;28;20061;-61
2021/12/25 10:33:31;;;;;;;7.97;2.80;;;;;;;;;;4989409;28;20051;-62
2021/12/25 10:36:03;;;;;;;8.25;2.17;;;;;;;;;;4988949;28;20026;-62
2021/12/25 10:38:30;;;;;;;11.27;2.90;;;;;;;;;;4988069;28;20030;-61
2021/12/25 10:41:13;;;;;;;10.77;2.90;;;;;;;;;;4988691;28;20038;-63
2021/12/25 10:43:42;;;;;;;7.10;2.72;;;;;;;;;;4988664;28;20272;-61
2021/12/25 10:46:09;;;;;;;15.07;2.55;;;;;;;;;;4989122;28;20030;-62
2021/12/25 10:48:36;;;;;;;9.27;2.60;;;;;;;;;;4989200;28;20113;-63
2021/12/25 10:51:04;;;;;;;8.02;2.22;;;;;;;;;;4987088;28;20057;-64
2021/12/25 10:53:32;;;;;;;11.60;2.88;;;;;;;;;;4989320;28;20042;-63
2021/12/25 10:56:07;;;;;;;10.35;3.00;;;;;;;;;;4988622;28;20026;-64
2021/12/25 10:58:34;;;;;;;8.63;2.50;;;;;;;;;;4988701;28;20073;-63
2021/12/25 11:01:01;;;;;;;10.30;2.63;;;;;;;;;;4989201;28;20105;-64
2021/12/25 11:03:30;;;;;;;11.05;2.22;;;;;;;;;;4986180;28;20034;-64
2021/12/25 11:06:02;;;;;;;6.90;2.28;;;;;;;;;;4989305;28;20030;-64
2021/12/25 11:08:29;;;;;;;24.23;2.40;;;;;;;;;;4988923;28;20026;-65
2021/12/25 11:10:59;;;;;;;7.13;2.03;;;;;;;;;;4988258;28;20026;-65
2021/12/25 11:13:31;;;;;;;10.30;3.10;;;;;;;;;;4989023;28;20023;-63
2021/12/25 11:16:03;;;;;;;;;;;;;;;;;;4987218;28;20022;-64
2021/12/25 11:19:00;;;;;;;6.82;2.42;;;;;;;;;;4988141;28;20328;-63
2021/12/25 11:21:28;;;;;;;8.43;2.80;;;;;;;;;;4989427;28;20041;-62
2021/12/25 11:24:08;;;;;;;7.30;2.28;;;;;;;;;;4986712;28;20057;-61
2021/12/25 11:26:36;;;;;;;8.55;2.30;;;;;;;;;;4986903;28;20031;-62
2021/12/25 11:29:04;;;;;;;9.93;2.30;;;;;;;;;;4988202;28;20183;-62
2021/12/25 11:31:31;;;;;;;8.65;2.50;;;;;;;;;;4988114;28;20487;-64
2021/12/25 11:33:58;;;;;;;8.80;2.40;;;;;;;;;;4988632;28;20734;-63
2021/12/25 11:36:25;;;;;;;6.55;2.15;;;;;;;;;;4988272;28;20029;-64
2021/12/25 11:38:53;;;;;;;9.98;2.67;;;;;;;;;;4986524;28;20030;-62
2021/12/25 11:41:25;;;;;;;8.93;2.85;;;;;;;;;;4988685;28;20026;-63
2021/12/25 11:43:53;;;;;;;9.75;2.47;;;;;;;;;;4987818;28;20693;-64
2021/12/25 11:46:23;;;;;;;7.57;2.28;;;;;;;;;;4988432;28;20390;-63
2021/12/25 11:49:25;;;;;;;6.15;2.40;;;;;;;;;;4988455;28;20073;-62
2021/12/25 11:51:52;;;;;;;6.70;2.20;;;;;;;;;;4944425;29;20023;-62
2021/12/25 11:55:23;;;;;;;5.22;2.08;;;;;;;;;;4980506;28;20035;-62
2021/12/25 11:59:51;;;;;;;9.15;2.03;;;;;;;;;;4987917;28;20030;-62
2021/12/25 12:02:36;;;;;;;7.82;2.95;;;;;;;;;;4987276;28;20030;-64
2021/12/25 12:05:20;;;;;;;8.55;2.30;;;;;;;;;;4987790;28;20026;-62
2021/12/25 12:07:58;;;;;;;7.47;2.17;;;;;;;;;;4987643;28;20022;-62
2021/12/25 12:10:43;;;;;;;7.05;2.65;;;;;;;;;;4988339;28;20057;-62
2021/12/25 12:13:19;;;;;;;6.22;2.10;;;;;;;;;;4988222;28;20113;-62
2021/12/25 12:15:47;;;;;;;5.10;1.63;;;;;;;;;;4985850;28;20027;-63
2021/12/25 12:18:34;;;;;;;10.82;2.72;;;;;;;;;;4988464;28;20049;-65
2021/12/25 12:21:09;;;;;;;7.78;2.30;;;;;;;;;;4987880;28;20026;-62
2021/12/25 12:23:51;;;;;;;8.02;2.67;;;;;;;;;;4987767;28;20112;-63
2021/12/25 12:26:36;;;;;;;6.95;2.17;;;;;;;;;;4987445;28;20037;-61
2021/12/25 12:29:03;;;;;;;5.60;1.90;;;;;;;;;;4988943;28;20057;-63
2021/12/25 12:31:36;;;;;;;10.07;2.17;;;;;;;;;;4991301;28;20026;-61
2021/12/25 12:34:23;;;;;;;4.72;2.22;;;;;;;;;;4992144;28;20509;-62
2021/12/25 12:36:50;;;;;;;9.25;2.22;;;;;;;;;;4991048;28;20153;-64
2021/12/25 12:39:19;;;;;;;5.20;2.28;;;;;;;;;;4989298;28;20030;-63
2021/12/25 12:41:53;;;;;;;10.27;2.67;;;;;;;;;;4991776;28;20087;-62
2021/12/25 12:44:30;;;;;;;6.00;2.10;;;;;;;;;;4990789;28;20087;-62
2021/12/25 12:47:02;;;;;;;5.95;1.92;;;;;;;;;;4991200;28;20033;-61
2021/12/25 12:49:31;;;;;;;4.65;1.98;;;;;;;;;;4991309;28;20030;-61
2021/12/25 12:52:24;;;;;;;3.92;1.77;;;;;;;;;;4989392;28;20026;-61
2021/12/25 12:54:51;;;;;;;5.18;2.03;;;;;;;;;;4986054;28;20042;-63
2021/12/25 12:57:33;;;;;;;6.50;2.20;;;;;;;;;;4991187;28;20034;-61
2021/12/25 13:00:09;;;;;;;6.45;2.58;;;;;;;;;;4990617;28;20109;-61
2021/12/25 13:02:47;;;;;;;6.53;1.98;;;;;;;;;;4989866;28;20030;-62
2021/12/25 13:05:15;;;;;;;5.07;1.80;;;;;;;;;;4990771;28;20033;-61
2021/12/25 13:07:44;;;;;;;4.00;1.95;;;;;;;;;;4990713;28;20026;-61
2021/12/25 13:11:04;;;;;;;7.35;2.15;;;;;;;;;;4990997;28;20150;-61
2021/12/25 13:13:14;;;;;;;6.28;2.33;;;;;;;;;;4989813;28;20041;-62
2021/12/25 13:15:43;;;;;;;6.88;2.20;;;;;;;;;;4988722;28;20117;-60
2021/12/25 13:18:10;;;;;;;5.60;2.35;;;;;;;;;;4990907;28;20232;-61
2021/12/25 13:20:44;;;;;;;4.47;1.90;;;;;;;;;;4990475;28;20022;-61
2021/12/25 13:23:17;;;;;;;6.15;1.98;;;;;;;;;;4990597;28;20065;-61
2021/12/25 13:25:45;;;;;;;4.53;1.95;;;;;;;;;;4990274;28;20030;-62
2021/12/25 13:28:12;;;;;;;5.22;2.20;;;;;;;;;;4988460;28;20526;-62
2021/12/25 13:30:42;;;;;;;6.18;2.65;;;;;;;;;;4990766;28;20101;-62
2021/12/25 13:33:14;;;;;;;5.10;1.90;;;;;;;;;;4990169;28;20375;-61
2021/12/25 13:35:41;;;;;;;9.03;2.50;;;;;;;;;;4990267;28;20125;-63
2021/12/25 13:38:09;;;;;;;8.63;1.92;;;;;;;;;;4989488;28;20034;-62
2021/12/25 13:40:37;;;;;;;5.40;1.80;;;;;;;;;;4988582;28;20114;-61
2021/12/25 13:43:09;;;;;;;5.20;2.05;;;;;;;;;;4989068;28;20387;-62
2021/12/25 13:45:37;;;;;;;9.03;1.97;;;;;;;;;;4990233;28;20094;-64
2021/12/25 13:48:05;;;;;;;6.57;2.03;;;;;;;;;;4989951;28;20260;-63
2021/12/25 13:50:32;;;;;;;6.50;2.00;;;;;;;;;;4988677;28;20036;-62
2021/12/25 13:52:59;;;;;;;6.05;2.30;;;;;;;;;;4987957;28;20380;-61
2021/12/25 13:55:28;;;;;;;16.33;2.15;;;;;;;;;;4990263;28;20030;-62
2021/12/25 13:57:57;;;;;;;4.78;1.42;;;;;;;;;;4990246;28;20528;-63
2021/12/25 14:00:29;;;;;;;4.93;1.88;;;;;;;;;;4989580;28;20034;-61
2021/12/25 14:02:58;;;;;;;6.25;2.13;;;;;;;;;;4986833;28;20789;-62
2021/12/25 14:05:27;;;;;;;4.82;1.80;;;;;;;;;;4990182;28;20044;-62
2021/12/25 14:07:54;;;;;;;6.20;1.85;;;;;;;;;;4988321;28;20026;-62
2021/12/25 14:10:22;;;;;;;8.32;2.20;;;;;;;;;;4989874;28;20096;-62
2021/12/25 14:12:51;;;;;;;4.85;1.65;;;;;;;;;;4989561;28;20030;-63
2021/12/25 14:15:20;;;;;;;8.02;2.20;;;;;;;;;;4987605;28;20051;-62
2021/12/25 14:17:48;;;;;;;5.32;1.73;;;;;;;;;;4989663;28;20065;-62
2021/12/25 14:20:15;;;;;;;5.38;1.83;;;;;;;;;;4989320;28;20030;-63
2021/12/25 14:22:43;;;;;;;4.25;1.60;;;;;;;;;;4989418;28;20026;-62
2021/12/25 14:25:19;;;;;;;4.97;1.75;;;;;;;;;;4989053;28;20109;-63
2021/12/25 14:27:47;;;;;;;5.18;1.70;;;;;;;;;;4987471;28;20050;-61
2021/12/25 14:30:14;;;;;;;6.60;1.92;;;;;;;;;;4989520;28;20030;-62
2021/12/25 14:32:49;;;;;;;6.13;1.75;;;;;;;;;;4988916;28;20023;-62
2021/12/25 14:35:18;;;;;;;6.10;2.13;;;;;;;;;;4989442;28;20118;-62
2021/12/25 14:37:45;;;;;;;5.75;1.75;;;;;;;;;;4988316;28;20057;-62
2021/12/25 14:40:17;;;;;;;4.18;1.58;;;;;;;;;;4988126;28;20030;-62
2021/12/25 14:42:46;;;;;;;6.32;1.52;;;;;;;;;;4989071;28;20058;-63
2021/12/25 14:45:14;;;;;;;4.43;1.60;;;;;;;;;;4989206;28;20026;-62
2021/12/25 14:47:52;;;;;;;7.07;2.10;;;;;;;;;;4989316;28;20505;-61
2021/12/25 14:50:31;;;;;;;6.85;1.67;;;;;;;;;;4987498;28;20525;-61
2021/12/25 14:53:12;;;;;;;6.20;2.28;;;;;;;;;;4987942;28;20060;-62
2021/12/25 14:55:41;;;;;;;4.40;1.50;;;;;;;;;;4989003;28;20034;-62
2021/12/25 14:58:19;;;;;;;6.15;1.90;;;;;;;;;;4988887;28;20018;-62
2021/12/25 15:00:48;;;;;;;7.05;1.65;;;;;;;;;;4987213;28;20031;-63
2021/12/25 15:03:21;;;;;;;5.10;1.65;;;;;;;;;;4986855;28;20026;-62
2021/12/25 15:05:50;;;;;;;7.03;2.33;;;;;;;;;;4989110;28;20169;-63
2021/12/25 15:08:19;;;;;;;5.25;1.80;;;;;;;;;;4988726;28;20132;-64
2021/12/25 15:10:47;;;;;;;5.65;1.75;;;;;;;;;;4988484;28;20482;-65
2021/12/25 15:13:14;;;;;;;7.38;2.00;;;;;;;;;;4988549;28;20032;-64
2021/12/25 15:15:49;;;;;;;6.65;1.70;;;;;;;;;;4987521;28;20483;-64
2021/12/25 15:18:29;;;;;;;9.05;1.85;;;;;;;;;;4988811;28;20023;-64
2021/12/25 15:21:07;;;;;;;6.07;2.17;;;;;;;;;;4988380;28;20062;-64
2021/12/25 15:23:34;;;;;;;5.72;2.08;;;;;;;;;;4988320;28;20050;-62
2021/12/25 15:26:06;;;;;;;6.15;1.92;;;;;;;;;;4987322;28;20033;-64
2021/12/25 15:28:33;;;;;;;8.07;2.25;;;;;;;;;;4987954;28;20050;-63
2021/12/25 15:31:00;;;;;;;5.80;1.83;;;;;;;;;;4988193;28;20090;-62
2021/12/25 15:33:27;;;;;;;5.68;1.70;;;;;;;;;;4988467;28;20378;-63
2021/12/25 15:35:54;;;;;;;3.88;1.75;;;;;;;;;;4988813;28;20026;-63
2021/12/25 15:38:25;;;;;;;4.97;1.85;;;;;;;;;;4986485;28;20041;-64
2021/12/25 15:40:53;;;;;;;5.20;1.90;;;;;;;;;;4988539;28;20105;-62
2021/12/25 15:43:21;;;;;;;5.18;1.30;;;;;;;;;;4988162;28;20042;-64
2021/12/25 15:45:48;;;;;;;8.50;2.00;;;;;;;;;;4988156;28;20026;-65
2021/12/25 15:48:15;;;;;;;7.03;2.20;;;;;;;;;;4988794;28;20390;-62
2021/12/25 15:50:42;;;;;;;7.88;1.95;;;;;;;;;;4985929;28;20382;-64
2021/12/25 15:53:09;;;;;;;9.25;2.25;;;;;;;;;;4988705;28;20160;-63
2021/12/25 15:55:37;;;;;;;7.60;2.08;;;;;;;;;;4988280;28;20022;-63
2021/12/25 15:58:07;;;;;;;5.22;2.35;;;;;;;;;;4988277;28;20030;-64
2021/12/25 16:00:35;;;;;;;4.30;1.70;;;;;;;;;;4988364;28;20030;-62
2021/12/25 16:03:03;;;;;;;7.63;2.00;;;;;;;;;;4985440;28;20093;-62
2021/12/25 16:05:30;;;;;;;8.02;2.03;;;;;;;;;;4992437;28;20038;-64
2021/12/25 16:07:57;;;;;;;4.35;1.70;;;;;;;;;;4990648;28;20449;-64
2021/12/25 16:10:24;;;;;;;20.83;1.73;;;;;;;;;;4991859;28;20026;-62
2021/12/25 16:12:51;;;;;;;7.05;2.03;;;;;;;;;;4992097;28;20054;-62
2021/12/25 16:15:19;;;;;;;9.45;2.13;;;;;;;;;;4989904;28;20030;-61